sensor_id;sensor_type;location;lat;lon;timestamp;temperature;humidity
17992;DHT22;9121;50.926;5.340;2024-02-16T00:00:36;14.30;99.90
17992;DHT22;9121;50.926;5.340;2024-02-16T00:03:04;14.30;99.90
17992;DHT22;9121;50.926;5.340;2024-02-16T00:05:31;14.30;99.90
17992;DHT22;9121;50.926;5.340;2024-02-16T00:07:57;14.30;99.90
17992;DHT22;9121;50.926;5.340;2024-02-16T00:10:26;14.30;99.90
17992;DHT22;9121;50.926;5.340;2024-02-16T00:12:53;14.30;99.90
17992;DHT22;9121;50.926;5.340;2024-02-16T00:15:20;14.40;99.90
17992;DHT22;9121;50.926;5.340;2024-02-16T00:17:47;14.30;99.90
17992;DHT22;9121;50.926;5.340;2024-02-16T00:20:15;14.30;99.90
17992;DHT22;9121;50.926;5.340;2024-02-16T00:22:42;14.30;99.90
17992;DHT22;9121;50.926;5.340;2024-02-16T00:25:09;14.30;99.90
17992;DHT22;9121;50.926;5.340;2024-02-16T00:27:37;14.40;99.90
17992;DHT22;9121;50.926;5.340;2024-02-16T00:30:05;14.40;99.90
17992;DHT22;9121;50.926;5.340;2024-02-16T00:32:32;14.40;99.90
17992;DHT22;9121;50.926;5.340;2024-02-16T00:34:59;14.40;99.90
17992;DHT22;9121;50.926;5.340;2024-02-16T00:37:26;14.40;99.90
17992;DHT22;9121;50.926;5.340;2024-02-16T00:39:53;14.40;99.90
17992;DHT22;9121;50.926;5.340;2024-02-16T00:42:21;14.30;99.90
17992;DHT22;9121;50.926;5.340;2024-02-16T00:44:50;14.40;99.90
17992;DHT22;9121;50.926;5.340;2024-02-16T00:47:17;14.30;99.90
17992;DHT22;9121;50.926;5.340;2024-02-16T00:49:44;14.30;99.90
17992;DHT22;9121;50.926;5.340;2024-02-16T00:52:11;14.30;99.90
17992;DHT22;9121;50.926;5.340;2024-02-16T00:54:37;14.30;99.90
17992;DHT22;9121;50.926;5.340;2024-02-16T00:57:05;14.30;99.90
17992;DHT22;9121;50.926;5.340;2024-02-16T00:59:32;14.20;99.90
17992;DHT22;9121;50.926;5.340;2024-02-16T01:02:00;14.20;99.90
17992;DHT22;9121;50.926;5.340;2024-02-16T01:04:27;14.20;99.90
17992;DHT22;9121;50.926;5.340;2024-02-16T01:06:55;14.20;99.90
17992;DHT22;9121;50.926;5.340;2024-02-16T01:09:22;14.10;99.90
17992;DHT22;9121;50.926;5.340;2024-02-16T01:11:49;14.10;99.90
17992;DHT22;9121;50.926;5.340;2024-02-16T01:14:16;14.10;99.90
17992;DHT22;9121;50.926;5.340;2024-02-16T01:16:43;14.10;99.90
17992;DHT22;9121;50.926;5.340;2024-02-16T01:19:11;14.10;99.90
17992;DHT22;9121;50.926;5.340;2024-02-16T01:21:38;14.00;99.90
17992;DHT22;9121;50.926;5.340;2024-02-16T01:24:06;14.00;99.90
17992;DHT22;9121;50.926;5.340;2024-02-16T01:26:34;14.00;99.90
17992;DHT22;9121;50.926;5.340;2024-02-16T01:29:01;14.00;99.90
17992;DHT22;9121;50.926;5.340;2024-02-16T01:31:28;13.90;99.90
17992;DHT22;9121;50.926;5.340;2024-02-16T01:33:55;13.90;99.90
17992;DHT22;9121;50.926;5.340;2024-02-16T01:36:24;13.90;99.90
17992;DHT22;9121;50.926;5.340;2024-02-16T01:38:51;13.90;99.90
17992;DHT22;9121;50.926;5.340;2024-02-16T01:41:18;13.90;99.90
17992;DHT22;9121;50.926;5.340;2024-02-16T01:43:44;13.90;99.90
17992;DHT22;9121;50.926;5.340;2024-02-16T01:46:11;13.90;99.90
17992;DHT22;9121;50.926;5.340;2024-02-16T01:48:38;13.90;99.90
17992;DHT22;9121;50.926;5.340;2024-02-16T01:51:07;13.90;99.90
17992;DHT22;9121;50.926;5.340;2024-02-16T01:53:36;13.90;99.90
17992;DHT22;9121;50.926;5.340;2024-02-16T01:56:03;13.90;99.90
17992;DHT22;9121;50.926;5.340;2024-02-16T01:58:30;13.90;99.90
17992;DHT22;9121;50.926;5.340;2024-02-16T02:00:57;13.90;99.90
17992;DHT22;9121;50.926;5.340;2024-02-16T02:03:24;13.90;99.90
17992;DHT22;9121;50.926;5.340;2024-02-16T02:05:51;14.00;99.90
17992;DHT22;9121;50.926;5.340;2024-02-16T02:08:20;14.00;99.90
17992;DHT22;9121;50.926;5.340;2024-02-16T02:10:48;14.00;99.90
17992;DHT22;9121;50.926;5.340;2024-02-16T02:13:15;14.00;99.90
17992;DHT22;9121;50.926;5.340;2024-02-16T02:15:45;14.00;99.90
17992;DHT22;9121;50.926;5.340;2024-02-16T02:18:12;14.00;99.90
17992;DHT22;9121;50.926;5.340;2024-02-16T02:20:39;14.00;99.90
17992;DHT22;9121;50.926;5.340;2024-02-16T02:23:08;14.10;99.90
17992;DHT22;9121;50.926;5.340;2024-02-16T02:25:35;14.10;99.90
17992;DHT22;9121;50.926;5.340;2024-02-16T02:28:02;14.10;99.90
17992;DHT22;9121;50.926;5.340;2024-02-16T02:30:29;14.10;99.90
17992;DHT22;9121;50.926;5.340;2024-02-16T02:32:56;14.10;99.90
17992;DHT22;9121;50.926;5.340;2024-02-16T02:35:23;14.10;99.90
17992;DHT22;9121;50.926;5.340;2024-02-16T02:37:50;14.10;99.90
17992;DHT22;9121;50.926;5.340;2024-02-16T02:40:19;14.10;99.90
17992;DHT22;9121;50.926;5.340;2024-02-16T02:42:46;14.10;99.90
17992;DHT22;9121;50.926;5.340;2024-02-16T02:45:13;14.10;99.90
17992;DHT22;9121;50.926;5.340;2024-02-16T02:47:40;14.10;99.90
17992;DHT22;9121;50.926;5.340;2024-02-16T02:50:08;14.10;99.90
17992;DHT22;9121;50.926;5.340;2024-02-16T02:52:35;14.10;99.90
17992;DHT22;9121;50.926;5.340;2024-02-16T02:55:02;14.10;99.90
17992;DHT22;9121;50.926;5.340;2024-02-16T02:57:30;14.10;99.90
17992;DHT22;9121;50.926;5.340;2024-02-16T03:00:03;14.10;99.90
17992;DHT22;9121;50.926;5.340;2024-02-16T03:02:33;14.10;99.90
17992;DHT22;9121;50.926;5.340;2024-02-16T03:05:00;14.20;99.90
17992;DHT22;9121;50.926;5.340;2024-02-16T03:07:26;14.20;99.90
17992;DHT22;9121;50.926;5.340;2024-02-16T03:09:53;14.20;99.90
17992;DHT22;9121;50.926;5.340;2024-02-16T03:12:20;14.20;99.90
17992;DHT22;9121;50.926;5.340;2024-02-16T03:14:49;14.20;99.90
17992;DHT22;9121;50.926;5.340;2024-02-16T03:17:16;14.20;99.90
17992;DHT22;9121;50.926;5.340;2024-02-16T03:19:43;14.30;99.90
17992;DHT22;9121;50.926;5.340;2024-02-16T03:22:10;14.30;99.90
17992;DHT22;9121;50.926;5.340;2024-02-16T03:24:36;14.30;99.90
17992;DHT22;9121;50.926;5.340;2024-02-16T03:27:04;14.30;99.90
17992;DHT22;9121;50.926;5.340;2024-02-16T03:29:31;14.30;99.90
17992;DHT22;9121;50.926;5.340;2024-02-16T03:31:59;14.30;99.90
17992;DHT22;9121;50.926;5.340;2024-02-16T03:34:26;14.30;99.90
17992;DHT22;9121;50.926;5.340;2024-02-16T03:36:53;14.30;99.90
17992;DHT22;9121;50.926;5.340;2024-02-16T03:39:20;14.30;99.90
17992;DHT22;9121;50.926;5.340;2024-02-16T03:41:48;14.30;99.90
17992;DHT22;9121;50.926;5.340;2024-02-16T03:44:15;14.30;99.90
17992;DHT22;9121;50.926;5.340;2024-02-16T03:46:42;14.30;99.90
17992;DHT22;9121;50.926;5.340;2024-02-16T03:49:11;14.30;99.90
17992;DHT22;9121;50.926;5.340;2024-02-16T03:51:38;14.30;99.90
17992;DHT22;9121;50.926;5.340;2024-02-16T03:54:05;14.30;99.90
17992;DHT22;9121;50.926;5.340;2024-02-16T03:56:32;14.30;99.90
17992;DHT22;9121;50.926;5.340;2024-02-16T03:58:59;14.30;99.90
17992;DHT22;9121;50.926;5.340;2024-02-16T04:01:26;14.30;99.90
17992;DHT22;9121;50.926;5.340;2024-02-16T04:03:53;14.30;99.90
17992;DHT22;9121;50.926;5.340;2024-02-16T04:06:22;14.30;99.90
17992;DHT22;9121;50.926;5.340;2024-02-16T04:08:49;14.30;99.90
17992;DHT22;9121;50.926;5.340;2024-02-16T04:11:16;14.30;99.90
17992;DHT22;9121;50.926;5.340;2024-02-16T04:13:43;14.30;99.90
17992;DHT22;9121;50.926;5.340;2024-02-16T04:16:10;14.30;99.90
17992;DHT22;9121;50.926;5.340;2024-02-16T04:18:36;14.30;99.90
17992;DHT22;9121;50.926;5.340;2024-02-16T04:21:04;14.30;99.90
17992;DHT22;9121;50.926;5.340;2024-02-16T04:23:32;14.30;99.90
17992;DHT22;9121;50.926;5.340;2024-02-16T04:25:59;14.30;99.90
17992;DHT22;9121;50.926;5.340;2024-02-16T04:28:26;14.30;99.90
17992;DHT22;9121;50.926;5.340;2024-02-16T04:30:53;14.30;99.90
17992;DHT22;9121;50.926;5.340;2024-02-16T04:33:20;14.30;99.90
17992;DHT22;9121;50.926;5.340;2024-02-16T04:35:46;14.30;99.90
17992;DHT22;9121;50.926;5.340;2024-02-16T04:38:16;14.30;99.90
17992;DHT22;9121;50.926;5.340;2024-02-16T04:40:44;14.30;99.90
17992;DHT22;9121;50.926;5.340;2024-02-16T04:43:11;14.30;99.90
17992;DHT22;9121;50.926;5.340;2024-02-16T04:45:38;14.40;99.90
17992;DHT22;9121;50.926;5.340;2024-02-16T04:48:05;14.40;99.90
17992;DHT22;9121;50.926;5.340;2024-02-16T04:50:33;14.40;99.90
17992;DHT22;9121;50.926;5.340;2024-02-16T04:53:00;14.40;99.90
17992;DHT22;9121;50.926;5.340;2024-02-16T04:55:28;14.40;99.90
17992;DHT22;9121;50.926;5.340;2024-02-16T04:57:57;14.40;99.90
17992;DHT22;9121;50.926;5.340;2024-02-16T05:00:24;14.40;99.90
17992;DHT22;9121;50.926;5.340;2024-02-16T05:02:51;14.40;99.90
17992;DHT22;9121;50.926;5.340;2024-02-16T05:05:18;14.40;99.90
17992;DHT22;9121;50.926;5.340;2024-02-16T05:07:48;14.40;99.90
17992;DHT22;9121;50.926;5.340;2024-02-16T05:10:15;14.40;99.90
17992;DHT22;9121;50.926;5.340;2024-02-16T05:12:42;14.50;99.90
17992;DHT22;9121;50.926;5.340;2024-02-16T05:15:11;14.50;99.90
17992;DHT22;9121;50.926;5.340;2024-02-16T05:17:39;14.50;99.90
17992;DHT22;9121;50.926;5.340;2024-02-16T05:20:09;14.50;99.90
17992;DHT22;9121;50.926;5.340;2024-02-16T05:22:41;14.50;99.90
17992;DHT22;9121;50.926;5.340;2024-02-16T05:25:09;14.50;99.90
17992;DHT22;9121;50.926;5.340;2024-02-16T05:27:36;14.50;99.90
17992;DHT22;9121;50.926;5.340;2024-02-16T05:30:05;14.50;99.90
17992;DHT22;9121;50.926;5.340;2024-02-16T05:32:35;14.50;99.90
17992;DHT22;9121;50.926;5.340;2024-02-16T05:35:03;14.50;99.90
17992;DHT22;9121;50.926;5.340;2024-02-16T05:37:37;14.40;99.90
17992;DHT22;9121;50.926;5.340;2024-02-16T05:40:08;14.40;99.90
17992;DHT22;9121;50.926;5.340;2024-02-16T05:42:46;14.40;99.90
17992;DHT22;9121;50.926;5.340;2024-02-16T05:45:14;14.40;99.90
17992;DHT22;9121;50.926;5.340;2024-02-16T05:47:43;14.40;99.90
17992;DHT22;9121;50.926;5.340;2024-02-16T05:50:12;14.30;99.90
17992;DHT22;9121;50.926;5.340;2024-02-16T05:52:39;14.30;99.90
17992;DHT22;9121;50.926;5.340;2024-02-16T05:55:08;14.30;99.90
17992;DHT22;9121;50.926;5.340;2024-02-16T05:57:35;14.30;99.90
17992;DHT22;9121;50.926;5.340;2024-02-16T06:00:03;14.30;99.90
17992;DHT22;9121;50.926;5.340;2024-02-16T06:02:30;14.30;99.90
17992;DHT22;9121;50.926;5.340;2024-02-16T06:04:59;14.30;99.90
17992;DHT22;9121;50.926;5.340;2024-02-16T06:07:26;14.20;99.90
17992;DHT22;9121;50.926;5.340;2024-02-16T06:09:55;14.20;99.90
17992;DHT22;9121;50.926;5.340;2024-02-16T06:12:22;14.20;99.90
17992;DHT22;9121;50.926;5.340;2024-02-16T06:14:49;14.20;99.90
17992;DHT22;9121;50.926;5.340;2024-02-16T06:17:16;14.20;99.90
17992;DHT22;9121;50.926;5.340;2024-02-16T06:19:43;14.20;99.90
17992;DHT22;9121;50.926;5.340;2024-02-16T06:22:12;14.10;99.90
17992;DHT22;9121;50.926;5.340;2024-02-16T06:24:39;14.10;99.90
17992;DHT22;9121;50.926;5.340;2024-02-16T06:27:05;14.10;99.90
17992;DHT22;9121;50.926;5.340;2024-02-16T06:29:33;14.20;99.90
17992;DHT22;9121;50.926;5.340;2024-02-16T06:32:00;14.20;99.90
17992;DHT22;9121;50.926;5.340;2024-02-16T06:34:29;14.20;99.90
17992;DHT22;9121;50.926;5.340;2024-02-16T06:36:56;14.20;99.90
17992;DHT22;9121;50.926;5.340;2024-02-16T06:39:24;14.10;99.90
17992;DHT22;9121;50.926;5.340;2024-02-16T06:41:52;14.10;99.90
17992;DHT22;9121;50.926;5.340;2024-02-16T06:44:19;14.10;99.90
17992;DHT22;9121;50.926;5.340;2024-02-16T06:46:46;14.10;99.90
17992;DHT22;9121;50.926;5.340;2024-02-16T06:49:13;14.10;99.90
17992;DHT22;9121;50.926;5.340;2024-02-16T06:51:40;14.20;99.90
17992;DHT22;9121;50.926;5.340;2024-02-16T06:54:07;14.20;99.90
17992;DHT22;9121;50.926;5.340;2024-02-16T06:56:34;14.20;99.90
17992;DHT22;9121;50.926;5.340;2024-02-16T06:59:01;14.20;99.90
17992;DHT22;9121;50.926;5.340;2024-02-16T07:01:28;14.20;99.90
17992;DHT22;9121;50.926;5.340;2024-02-16T07:03:55;14.20;99.90
17992;DHT22;9121;50.926;5.340;2024-02-16T07:06:22;14.20;99.90
17992;DHT22;9121;50.926;5.340;2024-02-16T07:08:49;14.20;99.90
17992;DHT22;9121;50.926;5.340;2024-02-16T07:11:16;14.20;99.90
17992;DHT22;9121;50.926;5.340;2024-02-16T07:13:45;14.20;99.90
17992;DHT22;9121;50.926;5.340;2024-02-16T07:16:12;14.20;99.90
17992;DHT22;9121;50.926;5.340;2024-02-16T07:18:39;14.20;99.90
17992;DHT22;9121;50.926;5.340;2024-02-16T07:21:07;14.20;99.90
17992;DHT22;9121;50.926;5.340;2024-02-16T07:23:35;14.20;99.90
17992;DHT22;9121;50.926;5.340;2024-02-16T07:26:03;14.20;99.90
17992;DHT22;9121;50.926;5.340;2024-02-16T07:28:30;14.20;99.90
17992;DHT22;9121;50.926;5.340;2024-02-16T07:30:58;14.20;99.90
17992;DHT22;9121;50.926;5.340;2024-02-16T07:33:25;14.30;99.90
17992;DHT22;9121;50.926;5.340;2024-02-16T07:35:54;14.30;99.90
17992;DHT22;9121;50.926;5.340;2024-02-16T07:38:21;14.30;99.90
17992;DHT22;9121;50.926;5.340;2024-02-16T07:40:48;14.30;99.90
17992;DHT22;9121;50.926;5.340;2024-02-16T07:43:16;14.30;99.90
17992;DHT22;9121;50.926;5.340;2024-02-16T07:45:44;14.30;99.90
17992;DHT22;9121;50.926;5.340;2024-02-16T07:48:12;14.30;99.90
17992;DHT22;9121;50.926;5.340;2024-02-16T07:50:39;14.30;99.90
17992;DHT22;9121;50.926;5.340;2024-02-16T07:53:06;14.30;99.90
17992;DHT22;9121;50.926;5.340;2024-02-16T07:55:35;14.30;99.90
17992;DHT22;9121;50.926;5.340;2024-02-16T07:58:02;14.40;99.90
17992;DHT22;9121;50.926;5.340;2024-02-16T08:00:29;14.40;99.90
17992;DHT22;9121;50.926;5.340;2024-02-16T08:02:56;14.40;99.90
17992;DHT22;9121;50.926;5.340;2024-02-16T08:05:24;14.40;99.90
17992;DHT22;9121;50.926;5.340;2024-02-16T08:07:52;14.40;99.90
17992;DHT22;9121;50.926;5.340;2024-02-16T08:10:20;14.40;99.90
17992;DHT22;9121;50.926;5.340;2024-02-16T08:12:47;14.40;99.90
17992;DHT22;9121;50.926;5.340;2024-02-16T08:15:14;14.40;99.90
17992;DHT22;9121;50.926;5.340;2024-02-16T08:17:48;14.40;99.90
17992;DHT22;9121;50.926;5.340;2024-02-16T08:20:15;14.40;99.90
17992;DHT22;9121;50.926;5.340;2024-02-16T08:22:43;14.40;99.90
17992;DHT22;9121;50.926;5.340;2024-02-16T08:25:10;14.40;99.90
17992;DHT22;9121;50.926;5.340;2024-02-16T08:27:37;14.40;99.90
17992;DHT22;9121;50.926;5.340;2024-02-16T08:30:05;14.40;99.90
17992;DHT22;9121;50.926;5.340;2024-02-16T08:32:31;14.40;99.90
17992;DHT22;9121;50.926;5.340;2024-02-16T08:34:58;14.40;99.90
17992;DHT22;9121;50.926;5.340;2024-02-16T08:37:26;14.40;99.90
17992;DHT22;9121;50.926;5.340;2024-02-16T08:39:55;14.50;99.90
17992;DHT22;9121;50.926;5.340;2024-02-16T08:42:21;14.50;99.90
17992;DHT22;9121;50.926;5.340;2024-02-16T08:44:49;14.60;99.90
17992;DHT22;9121;50.926;5.340;2024-02-16T08:47:16;14.60;99.90
17992;DHT22;9121;50.926;5.340;2024-02-16T08:49:44;14.60;99.90
17992;DHT22;9121;50.926;5.340;2024-02-16T08:52:11;14.60;99.90
17992;DHT22;9121;50.926;5.340;2024-02-16T08:54:37;14.70;99.90
17992;DHT22;9121;50.926;5.340;2024-02-16T08:57:06;14.70;99.90
17992;DHT22;9121;50.926;5.340;2024-02-16T08:59:33;14.70;99.90
17992;DHT22;9121;50.926;5.340;2024-02-16T09:02:00;14.70;99.90
17992;DHT22;9121;50.926;5.340;2024-02-16T09:04:28;14.70;99.90
17992;DHT22;9121;50.926;5.340;2024-02-16T09:06:54;14.70;99.90
17992;DHT22;9121;50.926;5.340;2024-02-16T09:09:21;14.70;99.90
17992;DHT22;9121;50.926;5.340;2024-02-16T09:11:49;14.70;99.90
17992;DHT22;9121;50.926;5.340;2024-02-16T09:14:17;14.70;99.90
17992;DHT22;9121;50.926;5.340;2024-02-16T09:16:44;14.60;99.90
17992;DHT22;9121;50.926;5.340;2024-02-16T09:19:11;14.50;99.90
17992;DHT22;9121;50.926;5.340;2024-02-16T09:21:38;14.50;99.90
17992;DHT22;9121;50.926;5.340;2024-02-16T09:24:05;14.50;99.90
17992;DHT22;9121;50.926;5.340;2024-02-16T09:26:36;14.40;99.90
17992;DHT22;9121;50.926;5.340;2024-02-16T09:29:03;14.40;99.90
17992;DHT22;9121;50.926;5.340;2024-02-16T09:31:32;14.40;99.90
17992;DHT22;9121;50.926;5.340;2024-02-16T09:33:59;14.40;99.90
17992;DHT22;9121;50.926;5.340;2024-02-16T09:36:25;14.50;99.90
17992;DHT22;9121;50.926;5.340;2024-02-16T09:38:52;14.60;99.90
17992;DHT22;9121;50.926;5.340;2024-02-16T09:41:20;14.70;99.90
17992;DHT22;9121;50.926;5.340;2024-02-16T09:43:48;14.70;99.90
17992;DHT22;9121;50.926;5.340;2024-02-16T09:46:15;14.70;99.90
17992;DHT22;9121;50.926;5.340;2024-02-16T09:48:46;14.70;99.90
17992;DHT22;9121;50.926;5.340;2024-02-16T09:51:14;14.70;99.90
17992;DHT22;9121;50.926;5.340;2024-02-16T09:53:42;14.70;99.90
17992;DHT22;9121;50.926;5.340;2024-02-16T09:56:09;14.70;99.90
17992;DHT22;9121;50.926;5.340;2024-02-16T09:58:36;14.70;99.90
17992;DHT22;9121;50.926;5.340;2024-02-16T10:01:03;14.80;99.90
17992;DHT22;9121;50.926;5.340;2024-02-16T10:03:31;14.80;99.90
17992;DHT22;9121;50.926;5.340;2024-02-16T10:06:07;14.80;99.90
17992;DHT22;9121;50.926;5.340;2024-02-16T10:08:46;14.80;99.90
17992;DHT22;9121;50.926;5.340;2024-02-16T10:11:15;14.80;99.90
17992;DHT22;9121;50.926;5.340;2024-02-16T10:13:42;14.70;99.90
17992;DHT22;9121;50.926;5.340;2024-02-16T10:16:10;14.80;99.90
17992;DHT22;9121;50.926;5.340;2024-02-16T10:18:38;14.80;99.90
17992;DHT22;9121;50.926;5.340;2024-02-16T10:21:08;14.80;99.90
17992;DHT22;9121;50.926;5.340;2024-02-16T10:23:35;14.80;99.90
17992;DHT22;9121;50.926;5.340;2024-02-16T10:26:02;14.80;99.90
17992;DHT22;9121;50.926;5.340;2024-02-16T10:28:29;14.80;99.90
17992;DHT22;9121;50.926;5.340;2024-02-16T10:30:58;14.80;99.90
17992;DHT22;9121;50.926;5.340;2024-02-16T10:33:27;14.60;99.90
17992;DHT22;9121;50.926;5.340;2024-02-16T10:35:56;14.50;99.90
17992;DHT22;9121;50.926;5.340;2024-02-16T10:38:26;14.40;99.90
17992;DHT22;9121;50.926;5.340;2024-02-16T10:40:56;14.30;99.90
17992;DHT22;9121;50.926;5.340;2024-02-16T10:43:25;14.30;99.90
17992;DHT22;9121;50.926;5.340;2024-02-16T10:45:54;14.40;99.90
17992;DHT22;9121;50.926;5.340;2024-02-16T10:48:23;14.40;99.90
17992;DHT22;9121;50.926;5.340;2024-02-16T10:50:50;14.40;99.90
17992;DHT22;9121;50.926;5.340;2024-02-16T10:53:22;14.40;99.90
17992;DHT22;9121;50.926;5.340;2024-02-16T10:55:51;14.40;99.90
17992;DHT22;9121;50.926;5.340;2024-02-16T10:58:18;14.40;99.90
17992;DHT22;9121;50.926;5.340;2024-02-16T11:00:52;14.40;99.90
17992;DHT22;9121;50.926;5.340;2024-02-16T11:03:22;14.40;99.90
17992;DHT22;9121;50.926;5.340;2024-02-16T11:05:53;14.40;99.90
17992;DHT22;9121;50.926;5.340;2024-02-16T11:08:21;14.50;99.90
17992;DHT22;9121;50.926;5.340;2024-02-16T11:10:57;14.50;99.90
17992;DHT22;9121;50.926;5.340;2024-02-16T11:13:24;14.50;99.90
17992;DHT22;9121;50.926;5.340;2024-02-16T11:16:02;14.50;99.90
17992;DHT22;9121;50.926;5.340;2024-02-16T11:18:29;14.50;99.90
17992;DHT22;9121;50.926;5.340;2024-02-16T11:21:00;14.50;99.90
17992;DHT22;9121;50.926;5.340;2024-02-16T11:23:28;14.50;99.90
17992;DHT22;9121;50.926;5.340;2024-02-16T11:26:00;14.50;99.90
17992;DHT22;9121;50.926;5.340;2024-02-16T11:28:27;14.60;99.90
17992;DHT22;9121;50.926;5.340;2024-02-16T11:30:54;14.60;99.90
17992;DHT22;9121;50.926;5.340;2024-02-16T11:33:21;14.60;99.90
17992;DHT22;9121;50.926;5.340;2024-02-16T11:35:55;14.50;99.90
17992;DHT22;9121;50.926;5.340;2024-02-16T11:38:23;14.50;99.90
17992;DHT22;9121;50.926;5.340;2024-02-16T11:40:58;14.50;99.90
17992;DHT22;9121;50.926;5.340;2024-02-16T11:43:25;14.50;99.90
17992;DHT22;9121;50.926;5.340;2024-02-16T11:45:53;14.60;99.90
17992;DHT22;9121;50.926;5.340;2024-02-16T11:48:20;14.60;99.90
17992;DHT22;9121;50.926;5.340;2024-02-16T11:50:49;14.60;99.90
17992;DHT22;9121;50.926;5.340;2024-02-16T11:53:17;14.60;99.90
17992;DHT22;9121;50.926;5.340;2024-02-16T11:55:48;14.60;99.90
17992;DHT22;9121;50.926;5.340;2024-02-16T11:58:18;14.60;99.90
17992;DHT22;9121;50.926;5.340;2024-02-16T12:00:45;14.60;99.90
17992;DHT22;9121;50.926;5.340;2024-02-16T12:03:18;14.60;99.90
17992;DHT22;9121;50.926;5.340;2024-02-16T12:05:50;14.60;99.90
17992;DHT22;9121;50.926;5.340;2024-02-16T12:08:17;14.70;99.90
17992;DHT22;9121;50.926;5.340;2024-02-16T12:10:46;14.60;99.90
17992;DHT22;9121;50.926;5.340;2024-02-16T12:13:13;14.70;99.90
17992;DHT22;9121;50.926;5.340;2024-02-16T12:15:43;14.70;99.90
17992;DHT22;9121;50.926;5.340;2024-02-16T12:18:10;14.70;99.90
17992;DHT22;9121;50.926;5.340;2024-02-16T12:20:37;14.70;99.90
17992;DHT22;9121;50.926;5.340;2024-02-16T12:23:11;14.70;99.90
17992;DHT22;9121;50.926;5.340;2024-02-16T12:25:38;14.70;99.90
17992;DHT22;9121;50.926;5.340;2024-02-16T12:28:05;14.70;99.90
17992;DHT22;9121;50.926;5.340;2024-02-16T12:30:33;14.60;99.90
17992;DHT22;9121;50.926;5.340;2024-02-16T12:33:02;14.60;99.90
17992;DHT22;9121;50.926;5.340;2024-02-16T12:35:29;14.40;99.90
17992;DHT22;9121;50.926;5.340;2024-02-16T12:37:56;14.40;99.90
17992;DHT22;9121;50.926;5.340;2024-02-16T12:40:23;14.40;99.90
17992;DHT22;9121;50.926;5.340;2024-02-16T12:42:50;14.30;99.90
17992;DHT22;9121;50.926;5.340;2024-02-16T12:45:17;14.30;99.90
17992;DHT22;9121;50.926;5.340;2024-02-16T12:47:44;14.20;99.90
17992;DHT22;9121;50.926;5.340;2024-02-16T12:50:14;14.30;99.90
17992;DHT22;9121;50.926;5.340;2024-02-16T12:52:41;14.30;99.90
17992;DHT22;9121;50.926;5.340;2024-02-16T12:55:08;14.30;99.90
17992;DHT22;9121;50.926;5.340;2024-02-16T12:57:35;14.20;99.90
17992;DHT22;9121;50.926;5.340;2024-02-16T13:00:04;14.20;99.90
17992;DHT22;9121;50.926;5.340;2024-02-16T13:02:31;14.20;99.90
17992;DHT22;9121;50.926;5.340;2024-02-16T13:04:58;14.30;99.90
17992;DHT22;9121;50.926;5.340;2024-02-16T13:07:26;14.20;99.90
17992;DHT22;9121;50.926;5.340;2024-02-16T13:09:53;14.30;99.90
17992;DHT22;9121;50.926;5.340;2024-02-16T13:12:20;14.30;99.90
17992;DHT22;9121;50.926;5.340;2024-02-16T13:14:49;14.20;99.90
17992;DHT22;9121;50.926;5.340;2024-02-16T13:17:16;14.20;99.90
17992;DHT22;9121;50.926;5.340;2024-02-16T13:19:43;14.20;99.90
17992;DHT22;9121;50.926;5.340;2024-02-16T13:22:10;14.20;99.90
17992;DHT22;9121;50.926;5.340;2024-02-16T13:24:39;14.10;99.90
17992;DHT22;9121;50.926;5.340;2024-02-16T13:27:06;14.10;99.90
17992;DHT22;9121;50.926;5.340;2024-02-16T13:29:33;14.10;99.90
17992;DHT22;9121;50.926;5.340;2024-02-16T13:32:00;14.10;99.90
17992;DHT22;9121;50.926;5.340;2024-02-16T13:34:27;14.10;99.90
17992;DHT22;9121;50.926;5.340;2024-02-16T13:36:54;14.10;99.90
17992;DHT22;9121;50.926;5.340;2024-02-16T13:39:21;14.10;99.90
17992;DHT22;9121;50.926;5.340;2024-02-16T13:41:49;14.10;99.90
17992;DHT22;9121;50.926;5.340;2024-02-16T13:44:17;14.00;99.90
17992;DHT22;9121;50.926;5.340;2024-02-16T13:46:45;14.00;99.90
17992;DHT22;9121;50.926;5.340;2024-02-16T13:49:15;14.00;99.90
17992;DHT22;9121;50.926;5.340;2024-02-16T13:51:42;14.00;99.90
17992;DHT22;9121;50.926;5.340;2024-02-16T13:54:11;13.90;99.90
17992;DHT22;9121;50.926;5.340;2024-02-16T13:56:38;13.90;99.90
17992;DHT22;9121;50.926;5.340;2024-02-16T13:59:07;13.80;99.90
17992;DHT22;9121;50.926;5.340;2024-02-16T14:01:34;13.80;99.90
17992;DHT22;9121;50.926;5.340;2024-02-16T14:04:01;13.80;99.90
17992;DHT22;9121;50.926;5.340;2024-02-16T14:06:29;13.70;99.90
17992;DHT22;9121;50.926;5.340;2024-02-16T14:08:57;13.50;99.90
17992;DHT22;9121;50.926;5.340;2024-02-16T14:11:24;13.50;99.90
17992;DHT22;9121;50.926;5.340;2024-02-16T14:13:51;13.60;99.90
17992;DHT22;9121;50.926;5.340;2024-02-16T14:16:18;13.60;99.90
17992;DHT22;9121;50.926;5.340;2024-02-16T14:18:45;13.60;99.90
17992;DHT22;9121;50.926;5.340;2024-02-16T14:21:16;13.60;99.90
17992;DHT22;9121;50.926;5.340;2024-02-16T14:23:43;13.60;99.90
17992;DHT22;9121;50.926;5.340;2024-02-16T14:26:10;13.60;99.90
17992;DHT22;9121;50.926;5.340;2024-02-16T14:28:37;13.60;99.90
17992;DHT22;9121;50.926;5.340;2024-02-16T14:31:04;13.50;99.90
17992;DHT22;9121;50.926;5.340;2024-02-16T14:33:33;13.50;99.90
17992;DHT22;9121;50.926;5.340;2024-02-16T14:36:00;13.50;99.90
17992;DHT22;9121;50.926;5.340;2024-02-16T14:38:27;13.60;99.90
17992;DHT22;9121;50.926;5.340;2024-02-16T14:40:54;13.60;99.90
17992;DHT22;9121;50.926;5.340;2024-02-16T14:43:21;13.60;99.90
17992;DHT22;9121;50.926;5.340;2024-02-16T14:45:48;13.70;99.90
17992;DHT22;9121;50.926;5.340;2024-02-16T14:48:15;13.70;99.90
17992;DHT22;9121;50.926;5.340;2024-02-16T14:50:43;13.70;99.90
17992;DHT22;9121;50.926;5.340;2024-02-16T14:53:10;13.70;99.90
17992;DHT22;9121;50.926;5.340;2024-02-16T14:55:37;13.70;99.90
17992;DHT22;9121;50.926;5.340;2024-02-16T14:58:04;13.70;99.90
17992;DHT22;9121;50.926;5.340;2024-02-16T15:00:32;13.80;99.90
17992;DHT22;9121;50.926;5.340;2024-02-16T15:03:01;13.80;99.90
17992;DHT22;9121;50.926;5.340;2024-02-16T15:05:28;13.70;99.90
17992;DHT22;9121;50.926;5.340;2024-02-16T15:07:57;13.70;99.90
17992;DHT22;9121;50.926;5.340;2024-02-16T15:10:24;13.70;99.90
17992;DHT22;9121;50.926;5.340;2024-02-16T15:12:50;13.80;99.90
17992;DHT22;9121;50.926;5.340;2024-02-16T15:15:17;13.90;99.90
17992;DHT22;9121;50.926;5.340;2024-02-16T15:17:44;13.80;99.90
17992;DHT22;9121;50.926;5.340;2024-02-16T15:20:14;13.90;99.90
17992;DHT22;9121;50.926;5.340;2024-02-16T15:22:41;13.90;99.90
17992;DHT22;9121;50.926;5.340;2024-02-16T15:25:10;13.90;99.90
17992;DHT22;9121;50.926;5.340;2024-02-16T15:27:36;13.90;99.90
17992;DHT22;9121;50.926;5.340;2024-02-16T15:30:05;13.90;99.90
17992;DHT22;9121;50.926;5.340;2024-02-16T15:32:32;13.90;99.90
17992;DHT22;9121;50.926;5.340;2024-02-16T15:34:59;13.90;99.90
17992;DHT22;9121;50.926;5.340;2024-02-16T15:37:26;13.90;99.90
17992;DHT22;9121;50.926;5.340;2024-02-16T15:39:53;13.90;99.90
17992;DHT22;9121;50.926;5.340;2024-02-16T15:42:27;13.80;99.90
17992;DHT22;9121;50.926;5.340;2024-02-16T15:44:55;13.80;99.90
17992;DHT22;9121;50.926;5.340;2024-02-16T15:47:22;13.90;99.90